TimeEST,TemperatureF,Dew PointF,Humidity,Sea Level PressureIn,VisibilityMPH,Wind Direction,Wind SpeedMPH,Gust SpeedMPH,PrecipitationIn,Events,Conditions,WindDirDegrees,DateUTC
12:53 AM,71.1,64.0,78,29.86,10.0,West,6.9,-,N/A,,Scattered Clouds,260,2012-11-07 05:53:00
1:53 AM,70.0,64.0,81,29.85,10.0,WNW,6.9,-,N/A,,Mostly Cloudy,290,2012-11-07 06:53:00
2:53 AM,70.0,64.9,84,29.85,10.0,West,10.4,-,N/A,,Overcast,280,2012-11-07 07:53:00
3:53 AM,68.0,62.1,81,29.85,10.0,WNW,8.1,-,N/A,,Scattered Clouds,300,2012-11-07 08:53:00
4:53 AM,66.0,57.9,75,29.87,10.0,NW,8.1,-,N/A,,Partly Cloudy,310,2012-11-07 09:53:00
5:53 AM,64.9,57.0,75,29.88,10.0,NW,10.4,-,N/A,,Partly Cloudy,320,2012-11-07 10:53:00
6:53 AM,64.0,55.9,75,29.90,10.0,NW,8.1,-,N/A,,Partly Cloudy,310,2012-11-07 11:53:00
7:53 AM,66.0,55.9,70,29.92,10.0,NW,10.4,-,N/A,,Partly Cloudy,320,2012-11-07 12:53:00
8:53 AM,68.0,53.1,59,29.94,10.0,NW,15.0,21.9,N/A,,Partly Cloudy,310,2012-11-07 13:53:00
9:53 AM,70.0,55.0,59,29.94,10.0,NW,19.6,26.5,N/A,,Partly Cloudy,320,2012-11-07 14:53:00
10:53 AM,71.1,53.1,53,29.93,10.0,NW,13.8,21.9,N/A,,Partly Cloudy,310,2012-11-07 15:53:00
11:53 AM,73.9,53.1,48,29.91,10.0,WNW,13.8,-,N/A,,Partly Cloudy,290,2012-11-07 16:53:00
12:53 PM,73.0,53.1,49,29.89,10.0,NW,15.0,23.0,N/A,,Partly Cloudy,320,2012-11-07 17:53:00
1:53 PM,71.1,53.1,53,29.88,10.0,WNW,13.8,24.2,N/A,,Mostly Cloudy,300,2012-11-07 18:53:00
2:53 PM,73.0,53.1,49,29.87,10.0,WNW,15.0,21.9,N/A,,Partly Cloudy,300,2012-11-07 19:53:00
3:53 PM,72.0,52.0,49,29.86,10.0,WNW,13.8,20.7,N/A,,Partly Cloudy,300,2012-11-07 20:53:00
4:53 PM,71.1,52.0,51,29.87,10.0,WNW,12.7,-,N/A,,Partly Cloudy,300,2012-11-07 21:53:00
5:53 PM,69.1,52.0,54,29.88,10.0,WNW,9.2,-,N/A,,Partly Cloudy,300,2012-11-07 22:53:00
6:53 PM,66.9,51.1,57,29.91,10.0,NW,8.1,-,N/A,,Partly Cloudy,320,2012-11-07 23:53:00
7:53 PM,64.9,51.1,61,29.94,10.0,NW,6.9,-,N/A,,Clear,320,2012-11-08 00:53:00
8:53 PM,64.0,50.0,60,29.96,10.0,NW,8.1,-,N/A,,Clear,310,2012-11-08 01:53:00
9:53 PM,63.0,50.0,63,29.99,10.0,NW,5.8,-,N/A,,Clear,310,2012-11-08 02:53:00
10:53 PM,62.1,50.0,65,29.99,10.0,NW,9.2,-,N/A,,Clear,320,2012-11-08 03:53:00
11:53 PM,60.1,48.0,64,29.99,10.0,NNW,8.1,-,N/A,,Clear,330,2012-11-08 04:53:00